createdAt,value
2018-04-12T00:00:47.438Z,0.00
2018-04-12T00:01:47.535Z,0.00
2018-04-12T00:02:47.626Z,0.00
2018-04-12T00:03:47.718Z,0.00
2018-04-12T00:04:47.815Z,0.00
2018-04-12T00:05:47.907Z,0.00
2018-04-12T00:06:48.003Z,0.00
2018-04-12T00:07:48.100Z,0.00
2018-04-12T00:08:48.193Z,0.00
2018-04-12T00:09:48.287Z,0.00
2018-04-12T00:10:48.387Z,0.00
2018-04-12T00:11:48.480Z,0.00
2018-04-12T00:12:48.567Z,0.00
2018-04-12T00:13:48.664Z,0.00
2018-04-12T00:14:48.753Z,0.00
2018-04-12T00:15:48.856Z,0.00
2018-04-12T00:16:48.946Z,0.00
2018-04-12T00:17:49.043Z,0.00
2018-04-12T00:18:49.135Z,0.00
2018-04-12T00:19:49.227Z,0.00
2018-04-12T00:20:49.321Z,0.00
2018-04-12T00:21:49.412Z,0.00
2018-04-12T00:22:49.506Z,0.00
2018-04-12T00:23:49.601Z,0.00
2018-04-12T00:24:49.701Z,0.00
2018-04-12T00:25:49.786Z,0.00
2018-04-12T00:26:49.883Z,0.00
2018-04-12T00:27:49.979Z,0.00
2018-04-12T00:28:50.083Z,0.00
2018-04-12T00:29:50.169Z,0.00
2018-04-12T00:30:50.266Z,0.00
2018-04-12T00:31:50.363Z,0.00
2018-04-12T00:32:50.457Z,0.00
2018-04-12T00:33:50.545Z,0.00
2018-04-12T00:34:50.642Z,0.00
2018-04-12T00:35:50.730Z,0.00
2018-04-12T00:36:50.830Z,0.00
2018-04-12T00:37:50.923Z,0.00
2018-04-12T00:38:51.029Z,0.00
2018-04-12T00:39:51.111Z,0.00
2018-04-12T00:40:51.205Z,0.00
2018-04-12T00:41:51.301Z,0.00
2018-04-12T00:42:51.393Z,0.00
2018-04-12T00:43:51.484Z,0.00
2018-04-12T00:44:51.582Z,0.00
2018-04-12T00:45:51.673Z,0.00
2018-04-12T00:46:51.767Z,0.00
2018-04-12T00:47:51.860Z,0.00
2018-04-12T00:48:51.952Z,0.00
2018-04-12T00:49:52.052Z,0.00
2018-04-12T00:50:52.146Z,0.00
2018-04-12T00:51:52.239Z,0.00
2018-04-12T00:52:52.336Z,0.00
2018-04-12T00:53:52.429Z,0.00
2018-04-12T00:54:52.558Z,0.00
2018-04-12T00:55:52.651Z,0.00
2018-04-12T00:56:52.868Z,0.00
2018-04-12T00:57:52.806Z,0.00
2018-04-12T00:58:52.913Z,0.00
2018-04-12T00:59:53.090Z,0.00
2018-04-12T01:00:53.053Z,0.00
2018-04-12T01:01:53.180Z,0.00
2018-04-12T01:02:53.289Z,0.00
2018-04-12T01:03:53.306Z,0.00
2018-04-12T01:04:53.423Z,0.00
2018-04-12T01:05:53.509Z,0.00
2018-04-12T01:06:53.632Z,0.00
2018-04-12T01:07:53.720Z,0.00
2018-04-12T01:08:53.821Z,0.00
2018-04-12T01:09:53.906Z,0.00
2018-04-12T01:10:54.013Z,0.00
2018-04-12T01:11:54.087Z,0.00
2018-04-12T01:12:54.178Z,0.00
2018-04-12T01:13:54.316Z,0.00
2018-04-12T01:14:54.408Z,0.00
2018-04-12T01:15:54.543Z,0.00
2018-04-12T01:16:54.616Z,0.00
2018-04-12T01:17:54.640Z,0.00
2018-04-12T01:18:54.750Z,0.00
2018-04-12T01:19:54.878Z,0.00
2018-04-12T01:20:54.990Z,0.00
2018-04-12T01:21:55.086Z,0.00
2018-04-12T01:22:55.180Z,0.00
2018-04-12T01:23:55.326Z,0.00
2018-04-12T01:24:55.323Z,0.00
2018-04-12T01:25:55.423Z,0.00
2018-04-12T01:26:55.528Z,0.00
2018-04-12T01:27:55.622Z,0.00
2018-04-12T01:28:55.718Z,0.00
2018-04-12T01:29:55.795Z,0.00
2018-04-12T01:30:55.913Z,0.00
2018-04-12T01:31:55.973Z,0.00
2018-04-12T01:32:56.084Z,0.00
2018-04-12T01:33:56.205Z,0.00
2018-04-12T01:34:56.302Z,0.00
2018-04-12T01:35:56.425Z,0.00
2018-04-12T01:36:56.529Z,0.00
2018-04-12T01:37:56.629Z,0.00
2018-04-12T01:38:56.717Z,0.00
2018-04-12T01:39:56.766Z,0.00
2018-04-12T01:40:56.871Z,0.00
2018-04-12T01:41:56.970Z,0.00
2018-04-12T01:42:57.077Z,0.00
2018-04-12T01:43:57.169Z,0.00
2018-04-12T01:44:57.270Z,0.00
2018-04-12T01:45:57.358Z,0.00
2018-04-12T01:46:57.462Z,0.00
2018-04-12T01:47:57.548Z,0.00
2018-04-12T01:48:57.675Z,0.00
2018-04-12T01:49:57.778Z,0.00
2018-04-12T01:50:57.888Z,0.00
2018-04-12T01:51:58.009Z,0.00
2018-04-12T01:52:58.105Z,0.00
2018-04-12T01:53:58.205Z,0.00
2018-04-12T01:54:58.280Z,0.00
2018-04-12T01:55:58.374Z,0.00
2018-04-12T01:56:58.498Z,0.00
2018-04-12T01:57:58.594Z,0.00
2018-04-12T01:58:58.687Z,0.00
2018-04-12T01:59:58.783Z,0.00
2018-04-12T02:00:58.866Z,0.00
2018-04-12T02:01:58.944Z,0.00
2018-04-12T02:02:59.066Z,0.00
2018-04-12T02:03:59.156Z,0.00
2018-04-12T02:04:59.249Z,0.00
2018-04-12T02:05:59.358Z,0.00
2018-04-12T02:06:59.466Z,0.00
2018-04-12T02:07:59.563Z,0.00
2018-04-12T02:08:59.652Z,0.00
2018-04-12T02:09:59.747Z,0.00
2018-04-12T02:10:59.838Z,0.00
2018-04-12T02:11:59.931Z,0.00
2018-04-12T02:13:00.011Z,0.00
2018-04-12T02:14:00.103Z,0.00
2018-04-12T02:15:00.187Z,0.00
2018-04-12T02:16:00.324Z,0.00
2018-04-12T02:17:00.431Z,0.00
2018-04-12T02:18:00.524Z,0.00
2018-04-12T02:19:00.618Z,0.00
2018-04-12T02:20:00.696Z,0.00
2018-04-12T02:21:00.790Z,0.00
2018-04-12T02:22:00.879Z,0.00
2018-04-12T02:23:00.977Z,0.00
2018-04-12T02:24:01.063Z,0.00
2018-04-12T02:25:01.141Z,0.00
2018-04-12T02:26:01.255Z,0.00
2018-04-12T02:27:01.341Z,0.00
2018-04-12T02:28:01.448Z,0.00
2018-04-12T02:29:01.536Z,0.00
2018-04-12T02:30:01.623Z,0.00
2018-04-12T02:31:01.786Z,0.00
2018-04-12T02:32:01.741Z,0.00
2018-04-12T02:33:01.844Z,0.00
2018-04-12T02:34:01.934Z,0.00
2018-04-12T02:35:02.049Z,0.00
2018-04-12T02:36:02.101Z,0.00
2018-04-12T02:37:02.188Z,0.00
2018-04-12T02:38:02.277Z,0.00
2018-04-12T02:39:02.353Z,0.00
2018-04-12T02:40:02.519Z,0.00
2018-04-12T02:41:02.501Z,0.00
2018-04-12T02:42:02.580Z,0.00
2018-04-12T02:43:02.672Z,0.00
2018-04-12T02:44:02.755Z,0.00
2018-04-12T02:45:02.854Z,0.00
2018-04-12T02:46:02.942Z,0.00
2018-04-12T02:47:03.034Z,0.00
2018-04-12T02:48:03.125Z,0.00
2018-04-12T02:49:03.243Z,0.00
2018-04-12T02:50:03.350Z,0.00
2018-04-12T02:51:03.451Z,0.00
2018-04-12T02:52:03.541Z,0.00
2018-04-12T02:53:03.630Z,0.00
2018-04-12T02:54:03.725Z,0.00
2018-04-12T02:55:03.826Z,0.00
2018-04-12T02:56:03.911Z,0.00
2018-04-12T02:57:04.015Z,0.00
2018-04-12T02:58:04.098Z,0.00
2018-04-12T02:59:04.184Z,0.00
2018-04-12T03:00:04.280Z,0.00
2018-04-12T03:01:04.390Z,0.00
2018-04-12T03:02:04.467Z,0.00
2018-04-12T03:03:04.562Z,0.00
2018-04-12T03:04:04.644Z,0.00
2018-04-12T03:05:04.756Z,0.00
2018-04-12T03:06:04.845Z,0.00
2018-04-12T03:07:04.943Z,0.00
2018-04-12T03:08:05.031Z,0.00
2018-04-12T03:09:05.103Z,0.00
2018-04-12T03:10:05.212Z,0.00
2018-04-12T03:11:05.324Z,0.00
2018-04-12T03:12:05.414Z,0.00
2018-04-12T03:13:05.498Z,0.00
2018-04-12T03:14:05.591Z,0.00
2018-04-12T03:15:05.681Z,0.00
2018-04-12T03:16:05.777Z,0.00
2018-04-12T03:17:05.871Z,0.00
2018-04-12T03:18:05.977Z,0.00
2018-04-12T03:19:06.065Z,0.00
2018-04-12T03:20:06.157Z,0.00
2018-04-12T03:21:06.251Z,0.00
2018-04-12T03:22:06.349Z,0.00
2018-04-12T03:23:06.448Z,0.00
2018-04-12T03:24:06.547Z,0.00
2018-04-12T03:25:06.641Z,0.00
2018-04-12T03:26:06.738Z,0.00
2018-04-12T03:27:06.835Z,0.00
2018-04-12T03:28:06.928Z,0.00
2018-04-12T03:29:07.024Z,0.00
2018-04-12T03:30:07.116Z,0.00
2018-04-12T03:31:07.209Z,0.00
2018-04-12T03:32:07.306Z,0.00
2018-04-12T03:33:07.403Z,0.00
2018-04-12T03:34:07.500Z,0.00
2018-04-12T03:35:07.602Z,0.00
2018-04-12T03:36:07.699Z,0.00
2018-04-12T03:37:07.795Z,0.00
2018-04-12T03:38:07.906Z,0.00
2018-04-12T03:39:08.005Z,0.00
2018-04-12T03:40:08.095Z,0.00
2018-04-12T03:41:08.190Z,0.00
2018-04-12T03:42:08.316Z,0.00
2018-04-12T03:43:08.383Z,0.00
2018-04-12T03:44:08.478Z,0.00
2018-04-12T03:45:08.571Z,0.00
2018-04-12T03:46:08.664Z,0.00
2018-04-12T03:47:08.760Z,0.00
2018-04-12T03:48:08.856Z,0.00
2018-04-12T03:49:08.975Z,0.00
2018-04-12T03:50:09.050Z,0.00
2018-04-12T03:51:09.141Z,0.00
2018-04-12T03:52:09.232Z,0.00
2018-04-12T03:53:09.328Z,0.00
2018-04-12T03:54:09.420Z,0.00
2018-04-12T03:55:09.517Z,0.00
2018-04-12T03:56:09.608Z,0.00
2018-04-12T03:57:09.713Z,0.00
2018-04-12T03:58:09.803Z,0.00
2018-04-12T03:59:09.897Z,0.00
2018-04-12T04:00:09.999Z,0.00
2018-04-12T04:01:10.100Z,0.00
2018-04-12T04:02:10.179Z,0.00
2018-04-12T04:03:10.274Z,0.00
2018-04-12T04:04:10.367Z,0.00
2018-04-12T04:05:10.459Z,0.00
2018-04-12T04:06:10.553Z,0.00
2018-04-12T04:07:10.644Z,0.00
2018-04-12T04:08:10.761Z,0.00
2018-04-12T04:09:10.858Z,0.00
2018-04-12T04:10:10.951Z,0.00
2018-04-12T04:11:11.045Z,0.00
2018-04-12T04:12:11.144Z,0.00
2018-04-12T04:13:11.238Z,0.00
2018-04-12T04:14:11.341Z,0.00
2018-04-12T04:15:11.431Z,0.00
2018-04-12T04:16:11.524Z,0.00
2018-04-12T04:17:11.616Z,0.00
2018-04-12T04:18:11.715Z,0.00
2018-04-12T04:19:11.814Z,0.00
2018-04-12T04:20:11.911Z,0.00
2018-04-12T04:21:12.007Z,0.00
2018-04-12T04:22:12.098Z,0.00
2018-04-12T04:23:12.193Z,0.00
2018-04-12T04:24:12.285Z,0.00
2018-04-12T04:25:12.382Z,0.00
2018-04-12T04:26:12.485Z,0.00
2018-04-12T04:27:12.585Z,0.00
2018-04-12T04:28:12.689Z,0.00
2018-04-12T04:29:12.785Z,0.00
2018-04-12T04:30:12.880Z,0.00
2018-04-12T04:31:12.980Z,0.00
2018-04-12T04:32:13.071Z,0.00
2018-04-12T04:33:13.168Z,0.00
2018-04-12T04:34:13.269Z,0.00
2018-04-12T04:35:13.368Z,0.00
2018-04-12T04:36:13.464Z,0.00
2018-04-12T04:37:13.567Z,0.00
2018-04-12T04:38:13.660Z,0.00
2018-04-12T04:39:13.754Z,5.63
2018-04-12T04:40:13.849Z,5.63
2018-04-12T04:41:13.942Z,5.63
2018-04-12T04:42:14.041Z,5.63
2018-04-12T04:43:14.141Z,5.63
2018-04-12T04:44:14.258Z,5.63
2018-04-12T04:45:14.354Z,5.63
2018-04-12T04:46:14.451Z,5.63
2018-04-12T04:47:14.548Z,5.63
2018-04-12T04:48:14.649Z,11.25
2018-04-12T04:49:14.734Z,11.25
2018-04-12T04:50:14.823Z,11.25
2018-04-12T04:51:14.925Z,11.25
2018-04-12T04:52:15.017Z,11.25
2018-04-12T04:53:15.115Z,16.88
2018-04-12T04:54:15.212Z,16.88
2018-04-12T04:55:15.303Z,16.88
2018-04-12T04:56:15.399Z,22.50
2018-04-12T04:57:15.500Z,22.50
2018-04-12T04:58:15.617Z,28.13
2018-04-12T04:59:15.695Z,28.13
2018-04-12T05:00:15.792Z,33.75
2018-04-12T05:01:15.890Z,33.75
2018-04-12T05:02:15.984Z,39.38
2018-04-12T05:03:16.083Z,39.38
2018-04-12T05:04:16.177Z,45.00
2018-04-12T05:05:16.276Z,45.00
2018-04-12T05:06:16.375Z,45.00
2018-04-12T05:07:16.527Z,50.63
2018-04-12T05:08:16.570Z,50.63
2018-04-12T05:09:16.665Z,50.63
2018-04-12T05:10:16.761Z,50.63
2018-04-12T05:11:16.857Z,56.25
2018-04-12T05:12:16.955Z,56.25
2018-04-12T05:13:17.051Z,61.88
2018-04-12T05:14:17.147Z,67.50
2018-04-12T05:15:17.241Z,73.13
2018-04-12T05:16:17.341Z,73.13
2018-04-12T05:17:17.438Z,78.75
2018-04-12T05:18:17.530Z,78.75
2018-04-12T05:19:17.624Z,78.75
2018-04-12T05:20:17.717Z,84.38
2018-04-12T05:21:17.814Z,90.00
2018-04-12T05:22:17.912Z,95.63
2018-04-12T05:23:18.010Z,106.88
2018-04-12T05:24:18.107Z,112.50
2018-04-12T05:25:18.205Z,118.13
2018-04-12T05:26:18.299Z,123.75
2018-04-12T05:27:18.401Z,135.00
2018-04-12T05:28:18.493Z,146.25
2018-04-12T05:29:18.593Z,151.88
2018-04-12T05:30:18.687Z,163.13
2018-04-12T05:31:18.785Z,163.13
2018-04-12T05:32:18.887Z,174.38
2018-04-12T05:33:18.978Z,180.00
2018-04-12T05:34:19.136Z,185.63
2018-04-12T05:35:19.227Z,185.63
2018-04-12T05:36:19.343Z,196.88
2018-04-12T05:37:19.464Z,196.88
2018-04-12T05:38:19.577Z,202.50
2018-04-12T05:39:19.667Z,191.25
2018-04-12T05:40:19.797Z,191.25
2018-04-12T05:41:19.895Z,185.63
2018-04-12T05:42:20.009Z,168.75
2018-04-12T05:43:20.174Z,151.88
2018-04-12T05:44:20.149Z,140.63
2018-04-12T05:45:20.250Z,135.00
2018-04-12T05:46:20.360Z,135.00
2018-04-12T05:47:20.441Z,140.63
2018-04-12T05:48:20.542Z,135.00
2018-04-12T05:49:20.638Z,146.25
2018-04-12T05:50:20.733Z,146.25
2018-04-12T05:51:20.940Z,140.63
2018-04-12T05:53:53.121Z,140.63
2018-04-12T05:54:53.137Z,151.88
2018-04-12T05:55:53.214Z,151.88
2018-04-12T05:56:53.567Z,146.25
2018-04-12T05:57:53.707Z,146.25
2018-04-12T05:58:53.437Z,151.88
2018-04-12T05:59:53.643Z,146.25
2018-04-12T06:00:53.688Z,140.63
2018-04-12T06:01:53.676Z,135.00
2018-04-12T06:02:53.770Z,135.00
2018-04-12T06:03:53.892Z,135.00
2018-04-12T06:04:54.000Z,135.00
2018-04-12T06:05:54.094Z,135.00
2018-04-12T06:06:54.160Z,135.00
2018-04-12T06:07:54.284Z,135.00
2018-04-12T06:08:54.523Z,135.00
2018-04-12T06:09:55.597Z,135.00
2018-04-12T06:10:54.632Z,135.00
2018-04-12T06:11:54.761Z,135.00
2018-04-12T06:12:54.860Z,135.00
2018-04-12T06:13:54.954Z,135.00
2018-04-12T06:14:55.117Z,135.00
2018-04-12T06:15:55.212Z,129.38
2018-04-12T06:16:55.596Z,129.38
2018-04-12T06:17:56.810Z,129.38
2018-04-12T06:18:55.915Z,129.38
2018-04-12T06:19:55.868Z,129.38
2018-04-12T06:20:55.774Z,129.38
2018-04-12T06:21:56.298Z,129.38
2018-04-12T06:22:57.863Z,129.38
2018-04-12T06:23:56.281Z,151.88
2018-04-12T06:24:56.241Z,168.75
2018-04-12T06:25:56.433Z,174.38
2018-04-12T06:26:56.508Z,174.38
2018-04-12T06:27:56.705Z,163.13
2018-04-12T06:28:56.710Z,219.38
2018-04-12T06:29:56.851Z,202.50
2018-04-12T06:30:56.958Z,202.50
2018-04-12T06:31:57.061Z,196.88
2018-04-12T06:32:57.164Z,219.38
2018-04-12T06:33:57.362Z,213.75
2018-04-12T06:34:57.510Z,219.38
2018-04-12T06:35:57.492Z,219.38
2018-04-12T06:36:57.854Z,241.88
2018-04-12T06:37:57.666Z,241.88
2018-04-12T06:38:57.871Z,236.25
2018-04-12T06:39:57.840Z,241.88
2018-04-12T06:40:57.943Z,241.88
2018-04-12T06:41:58.163Z,241.88
2018-04-12T06:42:58.188Z,241.88
2018-04-12T06:43:58.295Z,264.38
2018-04-12T06:44:58.388Z,270.00
2018-04-12T06:45:58.497Z,270.00
2018-04-12T06:46:58.590Z,270.00
2018-04-12T06:47:58.771Z,270.00
2018-04-12T06:48:58.731Z,281.25
2018-04-12T06:49:58.824Z,337.50
2018-04-12T06:50:58.933Z,433.13
2018-04-12T06:51:59.029Z,511.88
2018-04-12T06:52:59.149Z,545.63
2018-04-12T06:53:59.473Z,601.88
2018-04-12T06:54:59.278Z,776.25
2018-04-12T06:55:59.371Z,900.00
2018-04-12T06:56:59.458Z,534.38
2018-04-12T06:57:59.556Z,506.25
2018-04-12T06:58:59.636Z,506.25
2018-04-12T06:59:59.832Z,433.13
2018-04-12T07:00:59.831Z,528.75
2018-04-12T07:01:59.976Z,540.00
2018-04-12T07:03:00.183Z,618.75
2018-04-12T07:04:00.223Z,725.63
2018-04-12T07:05:00.185Z,703.13
2018-04-12T07:06:00.411Z,646.88
2018-04-12T07:07:00.505Z,585.00
2018-04-12T07:08:00.498Z,585.00
2018-04-12T07:09:00.608Z,545.63
2018-04-12T07:10:00.703Z,551.25
2018-04-12T07:11:00.859Z,579.38
2018-04-12T07:12:01.001Z,596.25
2018-04-12T07:13:01.089Z,607.50
2018-04-12T07:14:01.183Z,540.00
2018-04-12T07:15:01.363Z,489.38
2018-04-12T07:16:01.323Z,624.38
2018-04-12T07:17:01.448Z,708.75
2018-04-12T07:18:02.068Z,708.75
2018-04-12T07:19:01.735Z,686.25
2018-04-12T07:20:01.840Z,736.88
2018-04-12T07:21:01.969Z,691.88
2018-04-12T07:22:02.148Z,573.75
2018-04-12T07:23:02.189Z,523.13
2018-04-12T07:24:02.357Z,556.88
2018-04-12T07:25:02.454Z,601.88
2018-04-12T07:26:02.588Z,601.88
2018-04-12T07:27:02.722Z,641.25
2018-04-12T07:28:02.844Z,585.00
2018-04-12T07:29:03.158Z,607.50
2018-04-12T07:30:02.940Z,635.63
2018-04-12T07:31:03.035Z,658.13
2018-04-12T07:32:03.116Z,641.25
2018-04-12T07:33:03.201Z,618.75
2018-04-12T07:34:03.316Z,618.75
2018-04-12T07:35:03.458Z,618.75
2018-04-12T07:36:03.514Z,579.38
2018-04-12T07:37:03.596Z,607.50
2018-04-12T07:38:03.731Z,601.88
2018-04-12T07:39:03.834Z,585.00
2018-04-12T07:40:03.927Z,551.25
2018-04-12T07:41:04.014Z,523.13
2018-04-12T07:42:04.112Z,517.50
2018-04-12T07:43:04.281Z,483.75
2018-04-12T07:44:04.272Z,500.63
2018-04-12T07:45:04.377Z,472.50
2018-04-12T07:46:04.545Z,455.63
2018-04-12T07:47:04.610Z,427.50
2018-04-12T07:48:04.601Z,421.88
2018-04-12T07:49:04.696Z,405.00
2018-04-12T07:50:05.553Z,393.75
2018-04-12T07:51:04.950Z,416.25
2018-04-12T07:52:05.053Z,393.75
2018-04-12T07:53:05.150Z,354.38
2018-04-12T07:54:05.330Z,320.63
2018-04-12T07:55:05.479Z,320.63
2018-04-12T07:56:05.450Z,315.00
2018-04-12T07:57:05.556Z,326.25
2018-04-12T07:58:05.806Z,354.38
2018-04-12T07:59:05.781Z,376.88
2018-04-12T08:00:05.876Z,376.88
2018-04-12T08:01:06.030Z,399.38
2018-04-12T08:02:06.269Z,382.50
2018-04-12T08:03:06.273Z,365.63
2018-04-12T08:04:06.278Z,298.13
2018-04-12T08:05:06.406Z,270.00
2018-04-12T08:06:07.504Z,253.13
2018-04-12T08:07:06.617Z,253.13
2018-04-12T08:08:06.725Z,264.38
2018-04-12T08:09:06.851Z,393.75
2018-04-12T08:10:06.961Z,450.00
2018-04-12T08:11:07.198Z,455.63
2018-04-12T08:12:07.139Z,438.75
2018-04-12T08:13:07.323Z,433.13
2018-04-12T08:14:07.307Z,455.63
2018-04-12T08:15:07.402Z,433.13
2018-04-12T08:16:07.560Z,450.00
2018-04-12T08:17:07.660Z,416.25
2018-04-12T08:18:07.885Z,405.00
2018-04-12T08:19:07.857Z,416.25
2018-04-12T08:20:07.963Z,416.25
2018-04-12T08:21:08.101Z,427.50
2018-04-12T08:22:08.248Z,331.88
2018-04-12T08:23:08.334Z,399.38
2018-04-12T08:24:08.494Z,450.00
2018-04-12T08:25:08.566Z,455.63
2018-04-12T08:26:08.667Z,455.63
2018-04-12T08:27:08.763Z,444.38
2018-04-12T08:28:08.864Z,438.75
2018-04-12T08:29:08.960Z,433.13
2018-04-12T08:30:09.066Z,416.25
2018-04-12T08:31:09.162Z,399.38
2018-04-12T08:32:09.261Z,399.38
2018-04-12T08:33:09.407Z,410.63
2018-04-12T08:34:09.500Z,405.00
2018-04-12T08:35:09.596Z,382.50
2018-04-12T08:36:09.927Z,376.88
2018-04-12T08:37:09.769Z,388.13
2018-04-12T08:38:09.940Z,343.13
2018-04-12T08:39:09.920Z,315.00
2018-04-12T08:40:10.018Z,275.63
2018-04-12T08:41:10.115Z,258.75
2018-04-12T08:42:10.252Z,264.38
2018-04-12T08:43:10.369Z,213.75
2018-04-12T08:44:10.470Z,247.50
2018-04-12T08:45:10.568Z,331.88
2018-04-12T08:46:10.669Z,388.13
2018-04-12T08:47:10.767Z,410.63
2018-04-12T08:48:10.867Z,416.25
2018-04-12T08:49:10.964Z,421.88
2018-04-12T08:50:11.119Z,427.50
2018-04-12T08:51:11.209Z,427.50
2018-04-12T08:52:11.306Z,427.50
2018-04-12T08:53:11.402Z,427.50
2018-04-12T08:54:11.502Z,433.13
2018-04-12T08:55:11.599Z,433.13
2018-04-12T08:56:11.695Z,438.75
2018-04-12T08:57:11.809Z,427.50
2018-04-12T08:58:11.902Z,427.50
2018-04-12T08:59:11.998Z,427.50
2018-04-12T09:00:12.099Z,433.13
2018-04-12T09:01:12.201Z,416.25
2018-04-12T09:02:12.295Z,410.63
2018-04-12T09:03:12.396Z,405.00
2018-04-12T09:04:12.513Z,399.38
2018-04-12T09:05:12.607Z,393.75
2018-04-12T09:06:12.708Z,388.13
2018-04-12T09:07:12.804Z,388.13
2018-04-12T09:08:12.901Z,393.75
2018-04-12T09:09:13.005Z,382.50
2018-04-12T09:10:13.100Z,388.13
2018-04-12T09:11:13.208Z,382.50
2018-04-12T09:12:13.321Z,388.13
2018-04-12T09:13:13.404Z,382.50
2018-04-12T09:14:13.504Z,376.88
2018-04-12T09:15:13.606Z,376.88
2018-04-12T09:16:13.698Z,382.50
2018-04-12T09:17:13.794Z,371.25
2018-04-12T09:18:13.892Z,371.25
2018-04-12T09:19:13.995Z,365.63
2018-04-12T09:20:14.093Z,365.63
2018-04-12T09:21:14.192Z,365.63
2018-04-12T09:22:14.291Z,365.63
2018-04-12T09:23:14.402Z,360.00
2018-04-12T09:24:14.499Z,360.00
2018-04-12T09:25:14.596Z,365.63
2018-04-12T09:26:14.690Z,360.00
2018-04-12T09:27:14.817Z,365.63
2018-04-12T09:28:14.890Z,360.00
2018-04-12T09:29:14.994Z,365.63
2018-04-12T09:30:15.086Z,365.63
2018-04-12T09:31:15.200Z,365.63
2018-04-12T09:32:15.282Z,365.63
2018-04-12T09:33:15.442Z,365.63
2018-04-12T09:34:15.500Z,365.63
2018-04-12T09:35:15.603Z,360.00
2018-04-12T09:36:15.702Z,360.00
2018-04-12T09:37:15.801Z,331.88
2018-04-12T09:38:15.899Z,281.25
2018-04-12T09:39:15.986Z,309.38
2018-04-12T09:40:16.086Z,292.50
2018-04-12T09:41:16.187Z,298.13
2018-04-12T09:42:16.284Z,286.88
2018-04-12T09:43:16.384Z,331.88
2018-04-12T09:44:16.481Z,365.63
2018-04-12T09:45:16.581Z,388.13
2018-04-12T09:46:16.694Z,388.13
2018-04-12T09:47:16.777Z,388.13
2018-04-12T09:48:16.879Z,393.75
2018-04-12T09:49:16.998Z,399.38
2018-04-12T09:50:17.077Z,399.38
2018-04-12T09:51:17.174Z,393.75
2018-04-12T09:52:17.290Z,388.13
2018-04-12T09:53:17.388Z,393.75
2018-04-12T09:54:17.491Z,388.13
2018-04-12T09:55:17.591Z,399.38
2018-04-12T09:56:17.689Z,388.13
2018-04-12T09:57:17.790Z,382.50
2018-04-12T09:58:17.888Z,382.50
2018-04-12T09:59:17.990Z,382.50
2018-04-12T10:00:18.108Z,376.88
2018-04-12T10:01:18.202Z,371.25
2018-04-12T10:02:18.304Z,371.25
2018-04-12T10:03:18.405Z,371.25
2018-04-12T10:04:18.505Z,365.63
2018-04-12T10:05:18.608Z,365.63
2018-04-12T10:06:18.703Z,371.25
2018-04-12T10:07:18.828Z,365.63
2018-04-12T10:08:18.932Z,365.63
2018-04-12T10:09:19.027Z,365.63
2018-04-12T10:10:19.125Z,371.25
2018-04-12T10:11:19.225Z,365.63
2018-04-12T10:12:19.329Z,365.63
2018-04-12T10:13:19.425Z,360.00
2018-04-12T10:14:19.522Z,365.63
2018-04-12T10:15:19.621Z,371.25
2018-04-12T10:16:19.722Z,365.63
2018-04-12T10:17:19.824Z,360.00
2018-04-12T10:18:19.927Z,365.63
2018-04-12T10:19:20.024Z,360.00
2018-04-12T10:20:20.120Z,365.63
2018-04-12T10:21:20.239Z,365.63
2018-04-12T10:22:20.369Z,365.63
2018-04-12T10:23:20.493Z,365.63
2018-04-12T10:24:20.575Z,365.63
2018-04-12T10:25:20.674Z,376.88
2018-04-12T10:26:20.763Z,365.63
2018-04-12T10:27:20.865Z,405.00
2018-04-12T10:28:20.955Z,365.63
2018-04-12T10:29:21.090Z,360.00
2018-04-12T10:30:21.190Z,382.50
2018-04-12T10:31:21.294Z,354.38
2018-04-12T10:32:21.404Z,371.25
2018-04-12T10:33:21.523Z,360.00
2018-04-12T10:34:21.635Z,365.63
2018-04-12T10:35:21.736Z,360.00
2018-04-12T10:36:21.837Z,348.75
2018-04-12T10:37:21.936Z,354.38
2018-04-12T10:38:22.040Z,354.38
2018-04-12T10:39:22.170Z,360.00
2018-04-12T10:40:22.232Z,343.13
2018-04-12T10:41:22.322Z,354.38
2018-04-12T10:42:22.552Z,360.00
2018-04-12T10:43:22.517Z,365.63
2018-04-12T10:44:22.633Z,360.00
2018-04-12T10:45:23.536Z,348.75
2018-04-12T10:46:23.418Z,365.63
2018-04-12T10:47:23.013Z,371.25
2018-04-12T10:48:23.166Z,371.25
2018-04-12T10:49:23.275Z,382.50
2018-04-12T10:50:23.432Z,393.75
2018-04-12T10:51:23.554Z,410.63
2018-04-12T10:52:23.666Z,388.13
2018-04-12T10:53:23.762Z,388.13
2018-04-12T10:54:23.872Z,371.25
2018-04-12T10:55:23.990Z,376.88
2018-04-12T10:56:24.117Z,376.88
2018-04-12T10:57:24.216Z,427.50
2018-04-12T10:58:24.317Z,450.00
2018-04-12T10:59:24.496Z,466.88
2018-04-12T11:00:24.459Z,500.63
2018-04-12T11:01:24.591Z,489.38
2018-04-12T11:02:24.608Z,483.75
2018-04-12T11:03:24.750Z,466.88
2018-04-12T11:04:24.934Z,461.25
2018-04-12T11:05:24.984Z,472.50
2018-04-12T11:06:25.173Z,433.13
2018-04-12T11:07:25.137Z,444.38
2018-04-12T11:08:25.941Z,489.38
2018-04-12T11:09:25.341Z,483.75
2018-04-12T11:10:25.429Z,523.13
2018-04-12T11:11:25.527Z,528.75
2018-04-12T11:12:25.772Z,523.13
2018-04-12T11:13:25.770Z,511.88
2018-04-12T11:14:25.885Z,421.88
2018-04-12T11:15:25.888Z,433.13
2018-04-12T11:16:26.035Z,450.00
2018-04-12T11:17:26.642Z,450.00
2018-04-12T11:18:26.363Z,466.88
2018-04-12T11:19:26.445Z,455.63
2018-04-12T11:20:26.537Z,455.63
2018-04-12T11:21:26.826Z,450.00
2018-04-12T11:22:26.713Z,455.63
2018-04-12T11:23:26.852Z,427.50
2018-04-12T11:24:26.958Z,444.38
2018-04-12T11:25:27.041Z,438.75
2018-04-12T11:26:27.110Z,438.75
2018-04-12T11:27:27.216Z,483.75
2018-04-12T11:28:27.317Z,427.50
2018-04-12T11:29:27.470Z,427.50
2018-04-12T11:30:27.451Z,427.50
2018-04-12T11:31:27.555Z,427.50
2018-04-12T11:32:27.681Z,416.25
2018-04-12T11:33:27.787Z,343.13
2018-04-12T11:34:27.914Z,371.25
2018-04-12T11:35:28.056Z,388.13
2018-04-12T11:36:28.153Z,388.13
2018-04-12T11:37:28.243Z,388.13
2018-04-12T11:38:28.384Z,393.75
2018-04-12T11:39:28.485Z,399.38
2018-04-12T11:40:28.484Z,405.00
2018-04-12T11:41:28.612Z,405.00
2018-04-12T11:42:28.711Z,399.38
2018-04-12T11:43:28.822Z,410.63
2018-04-12T11:44:28.914Z,399.38
2018-04-12T11:45:29.052Z,427.50
2018-04-12T11:46:29.155Z,382.50
2018-04-12T11:47:29.241Z,388.13
2018-04-12T11:48:29.372Z,388.13
2018-04-12T11:49:29.471Z,376.88
2018-04-12T11:50:29.580Z,376.88
2018-04-12T11:51:29.703Z,376.88
2018-04-12T11:52:29.790Z,371.25
2018-04-12T11:53:29.897Z,371.25
2018-04-12T11:54:30.042Z,371.25
2018-04-12T11:55:30.173Z,376.88
2018-04-12T11:56:31.126Z,343.13
2018-04-12T11:57:31.050Z,343.13
2018-04-12T11:58:30.534Z,309.38
2018-04-12T11:59:30.678Z,388.13
2018-04-12T12:00:30.790Z,393.75
2018-04-12T12:01:30.893Z,405.00
2018-04-12T12:02:30.987Z,405.00
2018-04-12T12:03:31.125Z,410.63
2018-04-12T12:04:31.237Z,421.88
2018-04-12T12:05:31.344Z,427.50
2018-04-12T12:06:31.507Z,433.13
2018-04-12T12:07:31.527Z,433.13
2018-04-12T12:08:31.648Z,433.13
2018-04-12T12:09:31.754Z,438.75
2018-04-12T12:10:31.866Z,421.88
2018-04-12T12:11:31.994Z,433.13
2018-04-12T12:12:32.094Z,421.88
2018-04-12T12:13:32.201Z,365.63
2018-04-12T12:14:32.315Z,421.88
2018-04-12T12:15:32.413Z,461.25
2018-04-12T12:16:32.524Z,455.63
2018-04-12T12:17:32.677Z,528.75
2018-04-12T12:18:32.766Z,511.88
2018-04-12T12:19:32.873Z,495.00
2018-04-12T12:20:32.958Z,478.13
2018-04-12T12:21:33.068Z,421.88
2018-04-12T12:22:33.187Z,421.88
2018-04-12T12:23:33.298Z,427.50
2018-04-12T12:24:33.403Z,461.25
2018-04-12T12:25:33.507Z,478.13
2018-04-12T12:26:33.629Z,450.00
2018-04-12T12:27:33.736Z,455.63
2018-04-12T12:28:33.862Z,495.00
2018-04-12T12:29:33.950Z,495.00
2018-04-12T12:30:34.098Z,433.13
2018-04-12T12:31:34.164Z,466.88
2018-04-12T12:32:34.308Z,461.25
2018-04-12T12:33:34.393Z,511.88
2018-04-12T12:34:34.530Z,489.38
2018-04-12T12:35:34.642Z,500.63
2018-04-12T12:36:34.734Z,500.63
2018-04-12T12:37:34.843Z,534.38
2018-04-12T12:38:34.954Z,545.63
2018-04-12T12:39:35.057Z,517.50
2018-04-12T12:40:35.165Z,511.88
2018-04-12T12:41:35.272Z,551.25
2018-04-12T12:42:35.373Z,590.63
2018-04-12T12:43:35.479Z,540.00
2018-04-12T12:44:35.597Z,540.00
2018-04-12T12:45:35.688Z,545.63
2018-04-12T12:46:35.905Z,551.25
2018-04-12T12:47:35.928Z,568.13
2018-04-12T12:48:36.044Z,635.63
2018-04-12T12:49:36.223Z,635.63
2018-04-12T12:50:36.409Z,669.38